Pagrindinis puslapis
METAR-TAF:

METAR-TAF

Oro uostai :

Sandefjordas, Norvegija

platuma: 59-12N, ilguma: 010-16E, Aukštis: 8 m

Dabartinis oras

Ataskaita buvo paskelbta 33 minutes, ne 03:50 UTC
Vėjas 2 kt nuo kintamojo kryptimis
Temperatūra 13°C
Drėgmė 94%
Slėgis 1013 hPa
Matomumas 10 km arba daugiau

METAR: ENTO 250350Z AUTO VRB02KT 9999 OVC014/// 13/12 Q1013

Laikas: 06:23 (04:23 UTC)

Prognozė

Prognozė galioja nuo 25 metu 00 UTC su 25 metu 24 UTC
Vėjas 8 kt iš Pietų/Pietryčių
Matomumas 10 km arba daugiau
Su prošvaistėmis ne aukštis 1500 ft
Tikimybė 40%
nuo 25 metu 00 UTC su 25 metu 06 UTC
Apsiniaukę ne aukštis 800 ft
Tapsmas
nuo 25 metu 08 UTC su 25 metu 10 UTC
Išsisklaidę debesys ne aukštis 1500 ft

TAF: ENTO 2500/2524 16008KT 9999 BKN015 PROB40 2500/2506 OVC008 BECMG 2508/2510 SCT015

Orai ataskaitas ir orų prognozės (METAR, TAF).

turimą stotys yra geltonos ir raudonos taškus žemėlapyje.

Perkelti pele per norėdami pamatyti stoties vardą.

Tada spustelėkite, norėdami matyti oro stebėjimo ir prognozės.

Norėdami pakeisti žemėlapį: spustelėkite ant žalios mygtukų su juodo kryžiaus žemyn,; žalią mygtuką su brūkšneliu, jei norite nutolinti; arba žalių rodyklių gretimoms žemėlapius.


METAR-TAF: